Frederika, IA

11:11 AM CDT on August 28, 2014 (GMT -0500)
Radio Station N0VTZ; 5 Mi. North of | Change Station
CLOSE
Current Station
Personal Weather Station
Location: Sumner, IA
Elevation: 1145 ft
Nearby Weather Stations

Elev 1145 ft 42.91 °N, 92.10 °W | Updated 3 seconds ago

Rain
Rain
63.1 °F
Feels Like 63.1 °F
N
0.0
Wind Variable Wind from SE
Gusts 0.0 mph

Today
High -- | Low -- °F
--% Chance of Precip.
Yesterday
High -- | Low -- °F
Precip. -- in
6:29 AM 7:50 PM
Waxing Crescent, 9% visible
Pressure 30.09 in
Visibility 5.0 miles
Clouds Few 7500 ft
Dew Point Not available.
Humidity Not available.
Rainfall 0.00 in
Snow Depth Not available.
UV 6 out of 12
Pollen 1.00 out of 12
Air Quality Not available.
Flu Activity Not available.
METAR KOLZ 281555Z AUTO 13007KT 5SM BR FEW075 18/17 A3009 RMK AO2 P0003

More Conditions Fewer Conditions

Pressure 30.09 in
Visibility 5.0 miles
Clouds Few 7500 ft
Dew Point Not available.
Humidity Not available.
Rainfall 0.00 in
Snow Depth Not available.
UV 6 out of 12
Pollen 1.00 out of 12
Air Quality Not available.
Flu Activity Not available.
METAR KOLZ 281555Z AUTO 13007KT 5SM BR FEW075 18/17 A3009 RMK AO2 P0003

More Conditions Fewer Conditions

10-Day Weather Forecast

Almanac

Astronomy

Aug. 28, 2014 Rise Set
Actual Time 6:29 AM CDT 7:50 PM CDT
Civil Twilight 6:00 AM CDT 8:19 PM CDT
Nautical Twilight 5:24 AM CDT 8:54 PM CDT
Astronomical Twilight 4:47 AM CDT 9:32 PM CDT
Moon 9:27 AM CDT 9:08 PM CDT
Length of Visible Light 14h 19m
Length of Day
13h 20m
Tomorrow will be 2m 45s shorter.
Waxing Crescent, 9% of the Moon is Illuminated
Today
Waxing Crescent
Sep 2
First Quarter
Sep 8
Full
Sep 15
Last Quarter
Sep 24
New

Today's Extremes

State Highs State Lows

Community

WunderPhotos

Upload Photos

1,748,004 photos uploaded!

Nearby

Snow Depth

Station Depth Elevation
No new snow has been reported.

Earthquake Activity

City Distance Mag. Time & Date
No recent earthquake activity has been reported nearby.
Minimum magnitude displayed is 2.5.

Coastal Water Temperatures

Place Temperature
No Stations Reporting

Nearby Weather Stations